Terminal Aerodrome Forecast
Issued by NWS

Home | Current Version | Previous Version | Text Only | Print | Product List | Glossary On
Versions: 1 2 3 4 5 6 7 8 9 10 11 12 13 14 15 16 17 18 19 20 21 22 23 24 25 26 27 28 29 30 31 32 33 34 35 36 37 38 39 40 41 42 43 44
000
FTUS43 KMKX 221130
TAFENW
TAF
KENW 221130Z 2212/2312 26010KT P6SM SCT025 BKN150
      TEMPO 2213/2214 BKN025
     FM221400 27011G17KT P6SM BKN030
     FM221600 29012G21KT P6SM SCT035 SCT250
     FM230600 28006KT P6SM SKC=

USA.gov is the U.S. government's official web portal to all federal, state and local government web resources and services.